Time;durP1;ratioP1;P1;durP2;ratioP2;P2;SDS_P1;SDS_P2;PMS_P1;PMS_P2;Temp;Humidity;BMP_temperature;BMP_pressure;BME280_temperature;BME280_humidity;BME280_pressure;Samples;Min_cycle;Max_cycle;Signal;HPM_P1;HPM_P2
2022/11/10 00:07:28;;;;;;;10.40;7.03;;;11.50;77.10;;;;;;21174078;28;20043;-66
2022/11/10 00:17:30;;;;;;;10.73;7.45;;;11.50;77.30;;;;;;21174357;28;20085;-66
2022/11/10 00:27:32;;;;;;;14.68;9.00;;;11.50;77.40;;;;;;21173718;28;20236;-65
2022/11/10 00:37:33;;;;;;;9.60;5.43;;;11.40;77.20;;;;;;21172191;28;20055;-66
2022/11/10 00:47:35;;;;;;;6.85;4.95;;;11.40;76.20;;;;;;21170413;28;20050;-67
2022/11/10 00:57:37;;;;;;;6.53;4.50;;;11.30;76.70;;;;;;21169612;28;20415;-68
2022/11/10 01:07:38;;;;;;;6.35;4.60;;;11.20;76.70;;;;;;21168384;28;20047;-66
2022/11/10 01:17:39;;;;;;;6.28;4.63;;;11.00;76.80;;;;;;21169026;28;20086;-64
2022/11/10 01:27:41;;;;;;;7.45;4.80;;;11.10;77.00;;;;;;21167874;28;20089;-65
2022/11/10 01:37:44;;;;;;;9.15;4.43;;;11.00;76.90;;;;;;21167306;28;20055;-64
2022/11/10 01:47:46;;;;;;;7.68;4.75;;;;;;;;;;21166323;28;20523;-63
2022/11/10 01:57:47;;;;;;;8.07;4.50;;;11.10;75.70;;;;;;21165711;28;20052;-64
2022/11/10 02:07:50;;;;;;;6.18;5.03;;;10.80;76.20;;;;;;21165480;28;20475;-64
2022/11/10 02:17:52;;;;;;;6.78;4.60;;;10.70;76.60;;;;;;21145089;28;20059;-67
2022/11/10 02:27:53;;;;;;;9.43;4.88;;;10.60;76.70;;;;;;21163430;28;20057;-67
2022/11/10 02:37:54;;;;;;;6.68;4.38;;;10.50;76.50;;;;;;21163018;28;20047;-64
2022/11/10 02:47:55;;;;;;;5.63;4.60;;;10.40;76.60;;;;;;21162386;28;20048;-65
2022/11/10 02:57:57;;;;;;;8.32;4.32;;;10.30;76.50;;;;;;21162734;28;20047;-64
2022/11/10 03:08:01;;;;;;;8.82;3.95;;;10.40;75.80;;;;;;21162300;28;20484;-62
2022/11/10 03:18:04;;;;;;;6.22;4.22;;;10.30;76.00;;;;;;21163279;28;20507;-66
2022/11/10 03:28:08;;;;;;;5.67;4.37;;;10.20;76.10;;;;;;21167772;28;20101;-66
2022/11/10 03:38:13;;;;;;;5.93;3.80;;;10.10;76.40;;;;;;21177542;28;20511;-64
2022/11/10 03:48:16;;;;;;;5.63;3.92;;;10.00;76.70;;;;;;21175549;28;20044;-68
2022/11/10 03:58:18;;;;;;;6.70;4.72;;;10.00;77.10;;;;;;21174171;28;20047;-65
2022/11/10 04:18:46;;;;;;;7.30;4.65;;;10.00;76.90;;;;;;21172721;28;20047;-68
2022/11/10 04:28:53;;;;;;;6.70;4.80;;;10.00;76.30;;;;;;21172530;28;20148;-65
2022/11/10 04:38:57;;;;;;;10.30;4.65;;;9.80;76.90;;;;;;21171753;28;20055;-66
2022/11/10 04:49:18;;;;;;;6.65;4.78;;;10.00;76.70;;;;;;21170373;28;20048;-67
2022/11/10 04:59:39;;;;;;;7.35;4.18;;;9.90;76.80;;;;;;21169454;28;20062;-67
2022/11/10 05:09:40;;;;;;;7.65;4.88;;;9.80;76.80;;;;;;21168543;28;20048;-65
2022/11/10 05:19:46;;;;;;;5.53;4.20;;;9.80;76.80;;;;;;21168022;28;20044;-66
2022/11/10 05:29:48;;;;;;;9.23;4.65;;;9.80;76.60;;;;;;21167806;28;20405;-66
2022/11/10 05:39:51;;;;;;;6.93;4.40;;;9.80;76.80;;;;;;21166409;28;20059;-65
2022/11/10 05:49:54;;;;;;;7.30;4.88;;;9.80;76.70;;;;;;21164483;28;20120;-65
2022/11/10 05:59:55;;;;;;;6.88;4.30;;;9.70;76.80;;;;;;21165309;28;20197;-65
2022/11/10 06:09:58;;;;;;;6.47;4.28;;;9.70;76.30;;;;;;21164742;28;20070;-65
2022/11/10 06:20:01;;;;;;;9.18;4.53;;;9.70;75.40;;;;;;21164259;28;20059;-64
2022/11/10 06:30:03;;;;;;;9.55;4.57;;;9.50;75.60;;;;;;21164723;28;20482;-66
2022/11/10 06:40:07;;;;;;;6.47;4.28;;;9.50;74.70;;;;;;21161809;28;20135;-66
2022/11/10 06:50:09;;;;;;;7.18;3.35;;;9.30;75.40;;;;;;21160938;28;20051;-66
2022/11/10 07:00:12;;;;;;;9.65;7.07;;;9.10;75.30;;;;;;21165476;28;20403;-66
2022/11/10 07:10:14;;;;;;;14.43;7.97;;;9.10;74.90;;;;;;21178146;28;20073;-67
2022/11/10 07:20:16;;;;;;;9.52;5.10;;;9.20;74.50;;;;;;21177373;28;20066;-64
2022/11/10 07:30:18;;;;;;;14.07;5.68;;;9.10;74.70;;;;;;21177008;28;20051;-67
2022/11/10 07:40:20;;;;;;;10.32;4.63;;;9.20;74.60;;;;;;21176599;28;20453;-66
2022/11/10 07:50:22;;;;;;;11.43;5.22;;;9.20;75.10;;;;;;21174433;28;20555;-65
2022/11/10 08:00:24;;;;;;;6.80;4.25;;;9.10;75.50;;;;;;21173009;28;20043;-65
2022/11/10 08:10:30;;;;;;;5.53;4.05;;;9.30;75.50;;;;;;21171561;28;20052;-68
2022/11/10 08:20:32;;;;;;;11.55;6.20;;;9.60;74.70;;;;;;21171893;28;20048;-67
2022/11/10 08:30:35;;;;;;;8.05;4.65;;;9.70;74.30;;;;;;21171360;28;20063;-68
2022/11/10 08:40:37;;;;;;;8.00;5.28;;;9.90;74.10;;;;;;21171875;28;20048;-67
2022/11/10 08:50:40;;;;;;;13.40;5.72;;;10.20;73.80;;;;;;21169913;28;20124;-67
2022/11/10 09:00:41;;;;;;;10.55;5.70;;;10.60;73.20;;;;;;21169254;28;20079;-66
2022/11/10 09:10:49;;;;;;;11.30;5.85;;;10.90;72.90;;;;;;21168562;28;20079;-66
2022/11/10 09:20:51;;;;;;;10.05;4.90;;;11.30;72.50;;;;;;21167715;28;20404;-66
2022/11/10 09:30:53;;;;;;;7.40;4.47;;;11.70;71.70;;;;;;21165664;28;20052;-65
2022/11/10 09:40:58;;;;;;;6.03;3.60;;;12.10;70.20;;;;;;21166556;28;20077;-67
2022/11/10 09:51:18;;;;;;;7.30;3.97;;;12.40;69.10;;;;;;21234649;27;20997;-67
2022/11/10 10:01:47;;;;;;;8.77;4.35;;;12.70;68.10;;;;;;21235762;27;20059;-68
2022/11/10 10:12:17;;;;;;;13.48;4.50;;;13.00;66.90;;;;;;21235266;27;20411;-66
2022/11/10 10:22:45;;;;;;;8.93;5.15;;;13.30;66.30;;;;;;21234974;27;20181;-64
2022/11/10 10:32:48;;;;;;;7.10;4.68;;;13.50;66.00;;;;;;21140420;28;20117;-61
2022/11/10 10:42:50;;;;;;;9.07;5.82;;;14.90;65.20;;;;;;21122415;28;20047;-64
2022/11/10 10:53:12;;;;;;;8.80;5.13;;;15.80;60.20;;;;;;21136184;28;20050;-61
2022/11/10 11:03:29;;;;;;;7.93;4.40;;;16.30;59.30;;;;;;21105196;28;20060;-60
2022/11/10 11:13:31;;;;;;;8.07;5.20;;;16.60;58.10;;;;;;21173669;28;20047;-69
2022/11/10 11:23:47;;;;;;;10.57;5.22;;;16.70;57.60;;;;;;21174228;28;20411;-61
2022/11/10 11:34:04;;;;;;;8.55;5.03;;;16.70;57.20;;;;;;21174779;28;20483;-70
2022/11/10 11:44:08;;;;;;;6.68;4.50;;;16.90;56.10;;;;;;21165140;28;20138;-66
2022/11/10 11:54:29;;;;;;;14.07;6.32;;;16.50;57.50;;;;;;21088353;28;20081;-70
2022/11/10 12:04:40;;;;;;;9.85;4.65;;;16.20;57.50;;;;;;21085638;28;20083;-70
2022/11/10 12:15:11;;;;;;;8.45;5.65;;;16.10;56.90;;;;;;21084193;28;20044;-71
2022/11/10 12:25:18;;;;;;;11.40;5.22;;;16.10;58.70;;;;;;21084806;28;20408;-69
2022/11/10 12:35:33;;;;;;;7.32;4.93;;;16.10;57.00;;;;;;21082843;28;20052;-71
2022/11/10 12:45:41;;;;;;;7.43;4.50;;;16.30;55.60;;;;;;21082835;28;20060;-71
2022/11/10 12:55:55;;;;;;;7.38;3.85;;;16.30;55.50;;;;;;21081663;28;20055;-71
2022/11/10 13:06:00;;;;;;;4.78;3.28;;;16.40;53.50;;;;;;21082594;28;20073;-69
2022/11/10 13:16:01;;;;;;;6.95;2.58;;;16.60;53.60;;;;;;21081935;28;20040;-66
2022/11/10 13:26:08;;;;;;;4.40;2.80;;;16.70;51.90;;;;;;21080119;28;20052;-66
2022/11/10 13:36:09;;;;;;;3.05;1.70;;;16.70;50.40;;;;;;21079621;28;20052;-65
2022/11/10 13:46:11;;;;;;;3.42;2.05;;;16.70;50.70;;;;;;21078926;28;20056;-69
2022/11/10 13:56:12;;;;;;;4.95;2.05;;;16.60;50.40;;;;;;21081040;28;20087;-69
2022/11/10 14:06:25;;;;;;;4.25;2.13;;;16.60;50.20;;;;;;21079674;28;20453;-66
2022/11/10 14:16:30;;;;;;;3.60;2.28;;;16.70;50.10;;;;;;21078329;28;20458;-69
2022/11/10 14:26:41;;;;;;;4.85;2.70;;;16.70;50.00;;;;;;21077379;28;20415;-70
2022/11/10 14:36:50;;;;;;;6.47;3.80;;;16.70;50.80;;;;;;21091967;28;20048;-68
2022/11/10 14:46:53;;;;;;;7.25;2.60;;;16.70;50.60;;;;;;21091952;28;20090;-71
2022/11/10 14:56:55;;;;;;;5.13;2.90;;;16.70;50.40;;;;;;21093035;28;20048;-73
2022/11/10 15:06:58;;;;;;;4.18;2.58;;;16.70;50.00;;;;;;21092504;28;20070;-66
2022/11/10 15:17:13;;;;;;;6.97;2.50;;;16.70;51.20;;;;;;21091603;28;20055;-66
2022/11/10 15:27:32;;;;;;;8.32;2.95;;;16.70;50.90;;;;;;21095159;28;20079;-69
2022/11/10 15:37:38;;;;;;;6.22;3.05;;;16.70;52.10;;;;;;21088658;28;20044;-68
2022/11/10 15:47:40;;;;;;;4.00;2.03;;;16.50;52.50;;;;;;21089733;28;20052;-71
2022/11/10 15:57:41;;;;;;;3.92;1.75;;;16.40;50.80;;;;;;21087053;28;20051;-71
2022/11/10 16:07:43;;;;;;;5.47;2.03;;;16.40;51.20;;;;;;21086567;28;20056;-71
2022/11/10 16:17:46;;;;;;;4.47;2.30;;;16.30;52.40;;;;;;21084941;28;20043;-68
2022/11/10 16:27:47;;;;;;;5.65;2.40;;;16.30;53.00;;;;;;21084700;28;20052;-68
2022/11/10 16:37:49;;;;;;;8.05;2.13;;;16.20;53.00;;;;;;21083916;28;20066;-71
2022/11/10 16:47:52;;;;;;;7.75;2.92;;;16.10;53.70;;;;;;21084507;28;20048;-64
2022/11/10 16:57:54;;;;;;;4.53;2.20;;;16.00;54.10;;;;;;21132832;28;20058;-65
2022/11/10 17:07:57;;;;;;;5.10;2.38;;;15.90;56.00;;;;;;21165572;28;20106;-65
2022/11/10 17:18:02;;;;;;;5.80;2.97;;;15.70;55.50;;;;;;21085429;28;20143;-71
2022/11/10 17:28:04;;;;;;;7.88;4.88;;;15.80;59.10;;;;;;21080730;28;20048;-67
2022/11/10 17:38:10;;;;;;;9.05;3.47;;;16.00;55.80;;;;;;21078831;28;20048;-65
2022/11/10 17:48:12;;;;;;;14.70;5.93;;;15.70;55.70;;;;;;21084332;28;20123;-68
2022/11/10 17:58:15;;;;;;;15.05;7.00;;;15.60;57.50;;;;;;21079539;28;20198;-60
2022/11/10 18:08:18;;;;;;;26.08;14.95;;;16.30;59.40;;;;;;21060969;28;20052;-65
2022/11/10 18:18:19;;;;;;;18.98;8.77;;;17.10;58.10;;;;;;21068675;28;20047;-72
2022/11/10 18:28:22;;;;;;;21.75;10.25;;;16.40;58.20;;;;;;21063459;28;20047;-67
2022/11/10 18:38:23;;;;;;;17.13;9.05;;;16.00;60.40;;;;;;21056347;28;20405;-70
2022/11/10 18:48:25;;;;;;;21.95;9.82;;;15.70;60.50;;;;;;21102743;28;20056;-65
2022/11/10 18:58:26;;;;;;;18.73;7.70;;;15.70;61.90;;;;;;21095804;28;20073;-67
2022/11/10 19:08:28;;;;;;;14.18;6.13;;;15.90;62.00;;;;;;21084361;28;20407;-58
2022/11/10 19:18:29;;;;;;;13.30;6.75;;;15.90;61.10;;;;;;21063207;28;20048;-64
2022/11/10 19:28:31;;;;;;;27.33;16.05;;;15.70;61.60;;;;;;21045961;28;20559;-62
2022/11/10 19:38:33;;;;;;;9.70;5.57;;;15.10;61.50;;;;;;21038187;28;20200;-61
2022/11/10 19:48:35;;;;;;;8.70;4.43;;;15.70;69.80;;;;;;21082040;28;20067;-61
2022/11/10 19:58:38;;;;;;;6.43;3.25;;;14.80;60.60;;;;;;21086068;28;20048;-63
2022/11/10 20:08:40;;;;;;;5.65;2.92;;;14.20;62.00;;;;;;21085844;28;20052;-62
2022/11/10 20:18:42;;;;;;;6.40;4.50;;;13.90;62.70;;;;;;21084379;28;20044;-62
2022/11/10 20:28:43;;;;;;;5.30;3.55;;;13.70;63.60;;;;;;21084004;28;20102;-61
2022/11/10 20:38:49;;;;;;;5.03;2.80;;;13.40;64.40;;;;;;21083919;28;20480;-62
2022/11/10 20:48:51;;;;;;;5.57;3.30;;;13.30;64.50;;;;;;21082032;28;20055;-61
2022/11/10 20:58:53;;;;;;;9.45;4.60;;;13.20;64.80;;;;;;21082977;28;20055;-61
2022/11/10 21:08:55;;;;;;;10.63;3.65;;;13.20;65.20;;;;;;21080928;28;20090;-62
2022/11/10 21:18:57;;;;;;;7.32;3.90;;;12.90;66.10;;;;;;21079752;28;20040;-63
2022/11/10 21:29:00;;;;;;;9.70;5.03;;;12.70;66.60;;;;;;21079578;28;20051;-62
2022/11/10 21:39:02;;;;;;;11.07;6.00;;;12.60;67.00;;;;;;21079176;28;20040;-61
2022/11/10 21:49:04;;;;;;;10.50;5.72;;;12.60;67.20;;;;;;21076491;28;20183;-62
2022/11/10 21:59:05;;;;;;;8.90;5.47;;;12.50;67.10;;;;;;21079386;28;20051;-71
2022/11/10 22:09:07;;;;;;;7.03;4.05;;;12.40;67.40;;;;;;21079097;28;20101;-63
2022/11/10 22:19:09;;;;;;;9.55;5.35;;;12.30;67.80;;;;;;21078648;28;20040;-60
2022/11/10 22:29:11;;;;;;;8.32;5.38;;;12.20;67.80;;;;;;21077250;28;20055;-63
2022/11/10 22:39:12;;;;;;;7.70;4.88;;;12.20;67.90;;;;;;21077605;28;20098;-66
2022/11/10 22:49:16;;;;;;;5.55;3.70;;;12.20;67.70;;;;;;21076866;28;20052;-61
2022/11/10 22:59:18;;;;;;;6.40;3.75;;;12.40;67.00;;;;;;21092759;28;20342;-66
2022/11/10 23:09:20;;;;;;;4.90;3.15;;;12.40;66.40;;;;;;21090377;28;20051;-69
2022/11/10 23:19:21;;;;;;;7.00;4.78;;;12.60;65.80;;;;;;21090689;28;20087;-63
2022/11/10 23:29:23;;;;;;;4.93;3.70;;;12.60;66.00;;;;;;21090569;28;20056;-62
2022/11/10 23:39:25;;;;;;;4.85;3.05;;;12.50;66.10;;;;;;21089601;28;20454;-62
2022/11/10 23:49:27;;;;;;;5.28;2.90;;;12.60;65.90;;;;;;21086939;28;20060;-62
2022/11/10 23:59:28;;;;;;;4.38;2.40;;;12.50;66.10;;;;;;21085417;28;20070;-61
